Aeroporto :
LOGIN :

Iscrizione | Disclaimer

   EN    FR    IT 

 










Sommario :    VFR   VFR Marginale   IFR   IFR Intensivo   IFR Molto Intensivo
Visibilità : 
Base nubi : 
>= 8 km
>= 3000ft
5 / 8 km
1000 / 3000 ft
1500m / 5 km
500 / 1000 ft
800 / 1500m
200 / 500 ft
< 800m
< 200 ft
Simboli :   Temporali  Nebbia  Neve Forte  Precipitazioni Forti  Vento > 20 kt
SIGMETs :   Varie  Temporali  Ghiacco  Turbolenza  Onda orograficha  Ceneri Vulcaniche







- Altitudine del aeroporto : 309 ft
- Codice IATA : FNI
- Carte del aeroporto


LFTW - Nîmes Garons

ULTIMO METAR :
  • 161000Z AUTO VRB03KT CAVOK 11/04 Q1031 NOSIG

METARs OBSOLETI :
  • 160930Z AUTO VRB03KT CAVOK 10/03 Q1031 NOSIG
  • 160900Z AUTO 03003KT 360V070 CAVOK 08/02 Q1031 NOSIG
  • 160830Z AUTO 06003KT CAVOK 06/02 Q1031 NOSIG
  • 160800Z AUTO 02003KT 360V060 CAVOK 04/01 Q1031 TEMPO 1200 BR
  • 160730Z AUTO 01004KT CAVOK 02/00 Q1031 TEMPO 1200 BR
  • 160700Z AUTO 05004KT CAVOK 01/M01 Q1030 TEMPO 1200 BR VV///

TAF TAF LFTW
Valido dal 16 a 09 ore il 17 a 09 ore UTC


160800Z 1609/1709 VRB05KT CAVOK
BECMG 1621/1623 BKN010
Nessun NOTAM noto per questo aeroporto.



MetMap, La meteo Aeronautica in un colpo d'occhio ! - Copyright ORBIFLY Dicembre 2007 - Disclaimer

ORBIFLY MET'MAP TEAM :

Programmazione e sviluppo : Alexandra Zaïnal
Concezione e sviluppo : Baudouin d'Aumeries
Co-Programmazione e sviluppo : Marc-Olivier Méhu
Supporto tecnico e logistico : Manuel Goepfert
Aiuto per la traduzione : Arnaldo La Scala

Contatto : metmap@orbifly.com




FONTI E CREDITI :

   NOAA